Time;durP1;ratioP1;P1;durP2;ratioP2;P2;SDS_P1;SDS_P2;PMS_P1;PMS_P2;Temp;Humidity;BMP_temperature;BMP_pressure;BME280_temperature;BME280_humidity;BME280_pressure;Samples;Min_cycle;Max_cycle;Signal;HPM_P1;HPM_P2
2021/11/29 00:01:01;;;;;;;6.22;3.30;;;;;;;0.48;100.00;100538.31;5003406;28;20041;-73
2021/11/29 00:03:30;;;;;;;4.30;2.78;;;;;;;0.49;100.00;100538.28;5001438;28;20140;-74
2021/11/29 00:05:59;;;;;;;8.88;3.50;;;;;;;0.55;100.00;100553.22;5007874;28;20120;-75
2021/11/29 00:08:27;;;;;;;4.10;2.70;;;;;;;0.60;100.00;100569.00;5003555;28;20148;-73
2021/11/29 00:10:55;;;;;;;5.40;2.60;;;;;;;0.67;100.00;100571.66;5011017;28;20392;-74
2021/11/29 00:13:24;;;;;;;5.22;2.47;;;;;;;0.68;100.00;100569.88;5007603;28;20053;-74
2021/11/29 00:15:52;;;;;;;9.25;3.00;;;;;;;0.69;100.00;100576.91;5010550;28;20053;-74
2021/11/29 00:18:20;;;;;;;8.15;2.50;;;;;;;0.70;100.00;100573.41;5004996;28;20140;-68
2021/11/29 00:20:48;;;;;;;6.00;2.30;;;;;;;0.76;100.00;100573.41;5008365;28;20077;-68
2021/11/29 00:23:16;;;;;;;4.65;2.30;;;;;;;0.74;100.00;100575.16;5002153;28;20054;-68
2021/11/29 00:25:46;;;;;;;5.75;2.55;;;;;;;0.71;100.00;100580.41;5010411;28;20057;-69
2021/11/29 00:28:14;;;;;;;5.78;2.60;;;;;;;0.67;100.00;100590.03;5005414;28;20049;-69
2021/11/29 00:30:45;;;;;;;4.20;2.38;;;;;;;0.66;100.00;100580.38;5010004;28;20060;-69
2021/11/29 00:33:14;;;;;;;6.13;2.50;;;;;;;0.61;100.00;100573.38;5004365;28;20053;-69
2021/11/29 00:35:43;;;;;;;3.55;2.42;;;;;;;0.59;100.00;100565.47;5009781;28;20045;-69
2021/11/29 00:38:11;;;;;;;2.33;1.90;;;;;;;0.51;100.00;100560.22;5003404;28;20057;-69
2021/11/29 00:40:41;;;;;;;2.83;2.08;;;;;;;0.50;100.00;100563.69;5009364;28;20058;-70
2021/11/29 00:43:10;;;;;;;4.90;1.90;;;;;;;0.48;100.00;100562.81;5007197;28;20068;-74
2021/11/29 00:45:38;;;;;;;3.33;2.30;;;;;;;0.43;100.00;100558.41;5005931;28;20045;-74
2021/11/29 00:48:08;;;;;;;3.97;2.53;;;;;;;0.43;100.00;100561.91;5007118;28;20049;-73
2021/11/29 00:50:37;;;;;;;3.63;2.33;;;;;;;0.35;100.00;100561.84;5003154;28;20132;-74
2021/11/29 00:53:06;;;;;;;5.78;2.40;;;;;;;0.37;100.00;100577.63;5001947;28;20042;-74
2021/11/29 00:55:34;;;;;;;5.07;2.53;;;;;;;0.34;100.00;100570.63;5008986;28;20455;-74
2021/11/29 00:58:02;;;;;;;5.63;2.38;;;;;;;0.30;100.00;100573.22;5003538;28;20136;-73
2021/11/29 01:00:31;;;;;;;3.70;2.20;;;;;;;0.29;100.00;100576.69;5009623;28;20054;-74
2021/11/29 01:02:59;;;;;;;4.32;2.58;;;;;;;0.26;100.00;100574.06;5007293;28;20187;-69
2021/11/29 01:05:29;;;;;;;3.13;2.08;;;;;;;0.23;100.00;100587.16;5007771;28;20540;-70
2021/11/29 01:07:59;;;;;;;3.05;2.42;;;;;;;0.23;100.00;100593.28;5005932;28;20042;-69
2021/11/29 01:10:28;;;;;;;6.38;2.53;;;;;;;0.26;100.00;100595.94;5004407;28;20049;-69
2021/11/29 01:12:57;;;;;;;4.60;2.67;;;;;;;0.28;100.00;100598.56;5007428;28;20084;-69
2021/11/29 01:15:29;;;;;;;3.78;2.65;;;;;;;0.30;100.00;100597.69;5005566;28;20042;-73
2021/11/29 01:17:57;;;;;;;3.58;2.47;;;;;;;0.32;100.00;100589.84;5006858;28;20053;-73
2021/11/29 01:20:25;;;;;;;5.60;3.13;;;;;;;0.39;100.00;100594.25;5005709;28;20087;-73
2021/11/29 01:22:54;;;;;;;5.45;2.70;;;;;;;0.46;100.00;100605.66;5004641;28;20064;-73
2021/11/29 01:25:22;;;;;;;4.13;2.65;;;;;;;0.47;100.00;100631.06;5003863;28;20058;-73
2021/11/29 01:27:50;;;;;;;5.05;2.72;;;;;;;0.59;100.00;100643.38;5007075;28;20337;-73
2021/11/29 01:30:18;;;;;;;5.00;3.05;;;;;;;0.67;100.00;100637.31;5006424;28;20115;-74
2021/11/29 01:32:46;;;;;;;6.32;3.55;;;;;;;0.69;100.00;100634.69;5003988;28;20247;-70
2021/11/29 01:35:14;;;;;;;7.70;3.88;;;;;;;0.66;100.00;100624.16;5004807;28;20061;-70
2021/11/29 01:37:43;;;;;;;5.88;3.80;;;;;;;0.70;100.00;100610.19;5006217;28;20044;-69
2021/11/29 01:40:13;;;;;;;8.27;4.13;;;;;;;0.63;100.00;100624.13;5003233;28;20551;-69
2021/11/29 01:42:58;;;;;;;8.98;4.88;;;;;;;0.57;100.00;100611.00;5006087;28;20618;-69
2021/11/29 01:45:27;;;;;;;6.82;4.30;;;;;;;0.53;100.00;100610.97;5007532;28;20053;-69
2021/11/29 01:47:55;;;;;;;9.88;4.38;;;;;;;0.50;100.00;100613.56;5004092;28;20060;-70
2021/11/29 01:50:24;;;;;;;7.25;4.47;;;;;;;0.47;100.00;100625.81;5002378;28;20053;-70
2021/11/29 01:52:52;;;;;;;9.43;5.43;;;;;;;0.48;100.00;100633.69;5006395;28;20127;-70
2021/11/29 01:55:22;;;;;;;7.80;4.82;;;;;;;0.51;100.00;100657.34;5003184;28;20058;-70
2021/11/29 01:57:50;;;;;;;8.70;5.53;;;;;;;0.56;100.00;100667.88;5004667;28;20067;-70
2021/11/29 02:00:20;;;;;;;8.20;5.28;;;;;;;0.54;100.00;100678.34;4997184;28;20135;-70
2021/11/29 02:02:50;;;;;;;9.10;5.65;;;;;;;0.52;100.00;100674.84;5006565;28;20099;-70
2021/11/29 02:05:19;;;;;;;10.38;6.13;;;;;;;0.52;100.00;100690.59;5003457;28;20080;-69
2021/11/29 02:07:48;;;;;;;8.25;5.13;;;;;;;0.43;100.00;100708.06;5008291;28;20169;-69
2021/11/29 02:10:18;;;;;;;9.63;6.25;;;;;;;0.39;100.00;100682.63;5003689;28;20053;-69
2021/11/29 02:12:47;;;;;;;10.90;7.25;;;;;;;0.35;100.00;100645.84;5006095;28;20077;-69
2021/11/29 02:15:16;;;;;;;8.88;6.63;;;;;;;0.33;100.00;100621.34;5003067;28;20050;-69
2021/11/29 02:17:45;;;;;;;12.77;6.43;;;;;;;0.39;100.00;100609.13;5006235;28;20215;-69
2021/11/29 02:20:16;;;;;;;9.77;5.93;;;;;;;0.33;100.00;100612.59;5001231;28;20213;-70
2021/11/29 02:22:46;;;;;;;8.45;5.95;;;;;;;0.33;100.00;100616.09;5009035;28;20147;-70
2021/11/29 02:25:18;;;;;;;10.68;5.55;;;;;;;0.30;100.00;100610.81;4999973;28;20478;-70
2021/11/29 02:27:48;;;;;;;9.50;5.38;;;;;;;0.31;100.00;100609.09;5005370;28;20092;-70
2021/11/29 02:30:18;;;;;;;11.38;6.32;;;;;;;0.27;100.00;100610.78;5000952;28;20075;-70
2021/11/29 02:32:46;;;;;;;8.80;5.70;;;;;;;0.24;100.00;100610.81;5008174;28;20082;-71
2021/11/29 02:35:15;;;;;;;30.60;6.18;;;;;;;0.19;100.00;100607.28;5001580;28;20462;-70
2021/11/29 02:37:43;;;;;;;9.48;5.38;;;;;;;0.16;100.00;100604.63;5006601;28;20462;-70
2021/11/29 02:40:13;;;;;;;8.98;5.07;;;;;;;0.17;100.00;100606.34;5001452;28;20061;-70
2021/11/29 02:42:41;;;;;;;8.75;5.22;;;;;;;0.15;100.00;100606.38;5005728;28;20465;-71
2021/11/29 02:45:10;;;;;;;9.65;5.28;;;;;;;0.16;100.00;100604.63;5006137;28;20107;-70
2021/11/29 02:47:37;;;;;;;10.75;5.20;;;;;;;0.20;100.00;100597.66;5001906;28;20068;-70
2021/11/29 02:50:06;;;;;;;10.07;5.88;;;;;;;0.18;100.00;100597.63;5007149;28;20049;-70
2021/11/29 02:52:34;;;;;;;8.95;5.88;;;;;;;0.25;100.00;100603.81;5002352;28;20329;-70
2021/11/29 02:55:03;;;;;;;10.35;6.10;;;;;;;0.33;100.00;100612.59;5005109;28;20163;-71
2021/11/29 02:57:33;;;;;;;9.68;5.75;;;;;;;0.35;100.00;100608.25;5004599;28;20085;-70
2021/11/29 03:00:01;;;;;;;11.80;7.05;;;;;;;0.28;100.00;100601.19;5004375;28;20392;-70
2021/11/29 03:02:32;;;;;;;10.65;5.22;;;;;;;0.28;100.00;100615.19;5002187;28;20494;-70
2021/11/29 03:05:01;;;;;;;9.98;5.97;;;;;;;0.21;100.00;100609.91;5006563;28;20053;-70
2021/11/29 03:07:28;;;;;;;10.25;5.28;;;;;;;0.19;100.00;100609.91;5002182;28;21605;-70
2021/11/29 03:09:56;;;;;;;8.52;5.63;;;;;;;0.20;100.00;100603.75;5006701;28;20072;-70
2021/11/29 03:12:25;;;;;;;11.73;5.50;;;;;;;0.21;100.00;100600.28;5001176;28;20045;-70
2021/11/29 03:14:55;;;;;;;10.68;6.00;;;;;;;0.22;100.00;100611.66;5007657;28;20509;-71
2021/11/29 03:17:22;;;;;;;10.52;5.63;;;;;;;0.22;100.00;100619.53;5001633;28;20050;-70
2021/11/29 03:19:50;;;;;;;11.15;5.32;;;;;;;0.16;100.00;100620.38;5004023;28;20462;-70
2021/11/29 03:22:18;;;;;;;8.18;5.13;;;;;;;0.11;100.00;100616.84;5001190;28;20136;-70
2021/11/29 03:24:46;;;;;;;9.35;5.15;;;;;;;0.11;100.00;100629.94;5003953;28;20135;-71
2021/11/29 03:27:16;;;;;;;8.45;5.05;;;;;;;0.12;100.00;100643.09;5004101;28;20493;-70
2021/11/29 03:29:47;;;;;;;7.93;4.97;;;;;;;0.22;100.00;100649.25;5005914;28;20192;-70
2021/11/29 03:32:19;;;;;;;9.27;4.63;;;;;;;0.31;100.00;100654.59;5002770;28;20569;-70
2021/11/29 03:34:47;;;;;;;6.65;3.67;;;;;;;0.56;100.00;100670.50;5002797;28;20143;-69
2021/11/29 03:37:15;;;;;;;8.45;4.05;;;;;;;0.64;100.00;100674.03;5007920;28;20145;-74
2021/11/29 03:39:43;;;;;;;7.38;4.18;;;;;;;0.70;100.00;100684.59;5002116;28;21870;-74
2021/11/29 03:42:11;;;;;;;9.13;3.92;;;;;;;0.77;100.00;100713.50;5002766;28;21275;-73
2021/11/29 03:44:39;;;;;;;7.50;3.35;;;;;;;0.91;100.00;100683.81;5003610;28;21367;-73
2021/11/29 03:47:08;;;;;;;7.93;3.55;;;;;;;0.98;100.00;100673.34;5001771;28;20068;-70
2021/11/29 03:49:37;;;;;;;7.38;3.25;;;;;;;1.08;100.00;100669.91;5006509;28;20042;-70
2021/11/29 03:52:06;;;;;;;7.05;3.08;;;;;;;1.09;100.00;100646.25;4999835;28;21349;-70
2021/11/29 03:54:34;;;;;;;9.07;2.50;;;;;;;1.15;100.00;100640.13;5006934;28;20056;-70
2021/11/29 03:57:02;;;;;;;3.60;2.10;;;;;;;1.14;100.00;100642.75;5003641;28;20132;-69
2021/11/29 03:59:30;;;;;;;1.75;1.42;;;;;;;1.17;100.00;100635.75;5001308;28;20140;-70
2021/11/29 04:01:57;;;;;;;8.52;2.28;;;;;;;1.16;100.00;100638.38;4997699;28;20049;-70
2021/11/29 04:04:25;;;;;;;5.60;1.58;;;;;;;1.15;100.00;100628.75;5002328;28;20064;-70
2021/11/29 04:06:55;;;;;;;5.68;1.58;;;;;;;1.05;100.00;100633.09;5006251;28;20138;-70
2021/11/29 04:09:23;;;;;;;2.70;1.40;;;;;;;0.99;100.00;100641.84;5000719;28;20129;-70
2021/11/29 04:11:50;;;;;;;6.18;1.85;;;;;;;0.91;100.00;100633.91;5007339;28;20681;-71
2021/11/29 04:14:18;;;;;;;4.30;1.30;;;;;;;0.84;100.00;100636.50;5002101;28;20144;-70
2021/11/29 04:16:46;;;;;;;2.08;1.48;;;;;;;0.85;100.00;100641.78;5006457;28;20124;-70
2021/11/29 04:19:14;;;;;;;6.35;1.50;;;;;;;0.91;100.00;100638.28;5005356;28;20132;-70
2021/11/29 04:21:43;;;;;;;1.75;1.10;;;;;;;1.02;100.00;100636.59;5004318;28;20061;-70
2021/11/29 04:24:13;;;;;;;3.60;1.50;;;;;;;1.10;100.00;100639.25;5004892;28;20084;-74
2021/11/29 04:26:42;;;;;;;3.67;1.23;;;;;;;1.17;100.00;100633.13;5002290;28;20450;-73
2021/11/29 04:29:18;;;;;;;2.72;1.40;;;;;;;1.20;100.00;100627.88;5004042;28;20100;-74
2021/11/29 04:31:46;;;;;;;6.05;1.50;;;;;;;1.23;100.00;100637.53;5009608;28;20368;-74
2021/11/29 04:34:15;;;;;;;4.03;1.42;;;;;;;1.42;100.00;100647.22;5006169;28;20049;-73
2021/11/29 04:36:44;;;;;;;4.78;1.50;;;;;;;1.48;100.00;100663.03;5006151;28;20053;-74
2021/11/29 04:39:16;;;;;;;6.88;1.70;;;;;;;1.41;100.00;100666.47;5005937;28;20050;-74
2021/11/29 04:41:46;;;;;;;3.75;1.58;;;;;;;1.64;100.00;100666.53;5004069;28;20080;-74
2021/11/29 04:44:14;;;;;;;7.90;2.40;;;;;;;1.74;100.00;100656.94;5009839;28;20053;-74
2021/11/29 04:46:43;;;;;;;6.38;1.73;;;;;;;1.62;100.00;100651.66;5005466;28;20147;-74
2021/11/29 04:49:11;;;;;;;3.55;1.25;;;;;;;1.61;100.00;100650.75;5004426;28;20045;-74
2021/11/29 04:51:39;;;;;;;3.00;1.30;;;;;;;1.65;100.00;100667.41;5009395;28;20511;-73
2021/11/29 04:54:09;;;;;;;8.32;1.92;;;;;;;1.61;100.00;100666.53;5002578;28;20307;-74
2021/11/29 04:56:39;;;;;;;8.40;1.58;;;;;;;1.72;100.00;100676.19;5009899;28;20083;-75
2021/11/29 04:59:08;;;;;;;4.72;1.42;;;;;;;2.06;100.00;100687.66;5007326;28;20556;-74
2021/11/29 05:01:35;;;;;;;4.95;1.33;;;;;;;2.44;100.00;100705.19;5007116;28;20065;-75
2021/11/29 05:04:04;;;;;;;2.65;1.20;;;;;;;2.27;100.00;100694.66;5005796;28;20126;-74
2021/11/29 05:06:32;;;;;;;5.43;1.25;;;;;;;2.15;100.00;100695.56;5000804;28;20077;-74
2021/11/29 05:09:00;;;;;;;4.55;1.85;;;;;;;1.90;100.00;100689.38;5005344;28;20103;-73
2021/11/29 05:11:28;;;;;;;4.95;1.70;;;;;;;1.64;100.00;100670.94;5004975;28;20056;-72
2021/11/29 05:13:57;;;;;;;4.38;2.10;;;;;;;1.64;100.00;100676.19;5005766;28;20057;-72
2021/11/29 05:16:25;;;;;;;4.53;1.48;;;;;;;1.95;100.00;100676.25;5002935;28;21270;-71
2021/11/29 05:18:53;;;;;;;6.03;2.55;;;;;;;2.02;100.00;100673.59;5007657;28;20119;-71
2021/11/29 05:21:21;;;;;;;5.18;1.58;;;;;;;1.96;100.00;100673.59;5000482;28;20502;-72
2021/11/29 05:23:49;;;;;;;7.05;1.77;;;;;;;2.07;100.00;100675.38;5009380;28;20049;-72
2021/11/29 05:26:20;;;;;;;2.92;1.52;;;;;;;2.02;100.00;100668.31;5003959;28;20108;-73
2021/11/29 05:28:48;;;;;;;9.05;1.70;;;;;;;2.08;100.00;100678.00;5005905;28;20494;-73
2021/11/29 05:31:17;;;;;;;5.20;1.40;;;;;;;1.86;100.00;100671.84;5002960;28;20159;-74
2021/11/29 05:33:46;;;;;;;4.45;1.73;;;;;;;1.73;100.00;100678.84;5005621;28;20053;-73
2021/11/29 05:36:14;;;;;;;3.20;1.45;;;;;;;1.62;100.00;100685.84;5007896;28;20045;-74
2021/11/29 05:38:43;;;;;;;7.22;1.88;;;;;;;1.55;100.00;100689.31;5004051;28;20198;-73
2021/11/29 05:41:11;;;;;;;8.02;2.05;;;;;;;1.61;100.00;100706.00;5002662;28;20073;-73
2021/11/29 05:43:39;;;;;;;7.38;1.95;;;;;;;1.85;100.00;100710.41;5003458;28;20045;-74
2021/11/29 05:46:08;;;;;;;10.63;1.90;;;;;;;1.89;100.00;100720.97;5006501;28;20049;-74
2021/11/29 05:48:38;;;;;;;4.78;1.90;;;;;;;1.82;100.00;100727.97;5002202;28;20058;-74
2021/11/29 05:51:06;;;;;;;4.38;1.67;;;;;;;1.95;100.00;100732.38;5005713;28;20088;-73
2021/11/29 05:53:34;;;;;;;6.05;1.95;;;;;;;2.02;100.00;100733.25;5003106;28;20107;-74
2021/11/29 05:56:04;;;;;;;5.05;1.35;;;;;;;2.10;100.00;100731.53;5004640;28;20128;-74
2021/11/29 05:58:33;;;;;;;5.28;2.00;;;;;;;2.26;100.00;100745.56;5004315;28;20461;-74
2021/11/29 06:01:01;;;;;;;8.95;1.38;;;;;;;2.22;100.00;100749.09;5000591;28;20057;-74
2021/11/29 06:03:29;;;;;;;3.63;1.17;;;;;;;2.49;100.00;100735.03;5003859;28;20566;-72
2021/11/29 06:05:58;;;;;;;4.20;1.65;;;;;;;2.31;100.00;100728.00;5000765;28;20042;-74
2021/11/29 06:08:26;;;;;;;3.50;1.33;;;;;;;2.24;100.00;100728.91;5005947;28;20140;-73
2021/11/29 06:10:54;;;;;;;5.32;1.40;;;;;;;2.10;100.00;100726.25;5001375;28;20062;-74
2021/11/29 06:13:22;;;;;;;3.05;1.15;;;;;;;1.96;100.00;100726.25;5008513;28;20505;-74
2021/11/29 06:15:50;;;;;;;2.47;1.20;;;;;;;1.84;100.00;100726.22;5002520;28;20428;-74
2021/11/29 06:18:18;;;;;;;1.80;1.20;;;;;;;1.80;100.00;100730.59;5006493;28;20153;-73
2021/11/29 06:20:46;;;;;;;3.92;1.38;;;;;;;1.67;100.00;100736.72;5001934;28;20117;-73
2021/11/29 06:23:16;;;;;;;4.63;1.52;;;;;;;1.63;100.00;100737.56;5007077;28;20057;-73
2021/11/29 06:25:44;;;;;;;2.95;1.55;;;;;;;1.51;100.00;100732.28;5004290;28;20466;-73
2021/11/29 06:28:13;;;;;;;5.28;1.95;;;;;;;1.38;100.00;100740.13;5007370;28;20125;-73
2021/11/29 06:30:41;;;;;;;3.45;1.77;;;;;;;1.33;100.00;100739.22;5003189;28;20096;-73
2021/11/29 06:33:09;;;;;;;7.65;2.38;;;;;;;1.30;100.00;100747.09;5005397;28;20046;-73
2021/11/29 06:35:37;;;;;;;5.32;1.98;;;;;;;1.26;100.00;100764.59;5004237;28;20081;-73
2021/11/29 06:38:06;;;;;;;6.50;2.53;;;;;;;1.27;100.00;100768.09;5004772;28;20053;-73
2021/11/29 06:40:36;;;;;;;5.00;1.67;;;;;;;1.38;100.00;100773.41;5000854;28;20073;-69
2021/11/29 06:43:04;;;;;;;8.07;2.00;;;;;;;1.63;100.00;100770.00;5007634;28;20148;-70
2021/11/29 06:45:32;;;;;;;6.88;1.70;;;;;;;1.85;100.00;100763.03;5000764;28;20053;-69
2021/11/29 06:48:00;;;;;;;7.18;2.30;;;;;;;1.81;100.00;100752.53;5006671;28;20140;-70
2021/11/29 06:50:28;;;;;;;8.38;2.03;;;;;;;1.82;100.00;100759.53;5005948;28;20506;-70
2021/11/29 06:52:56;;;;;;;9.43;1.95;;;;;;;1.80;100.00;100767.41;4999658;28;20053;-70
2021/11/29 06:55:24;;;;;;;6.93;1.40;;;;;;;1.73;100.00;100778.81;5004346;28;20063;-70
2021/11/29 06:57:54;;;;;;;4.63;1.60;;;;;;;1.64;100.00;100789.31;5000948;28;20042;-70
2021/11/29 07:00:24;;;;;;;5.18;1.80;;;;;;;1.59;100.00;100767.38;5003284;28;20059;-69
2021/11/29 07:02:53;;;;;;;11.88;2.17;;;;;;;1.58;100.00;100765.59;5004233;28;20048;-70
2021/11/29 07:05:22;;;;;;;7.35;2.65;;;;;;;1.55;100.00;100771.75;5004553;28;20435;-70
2021/11/29 07:07:51;;;;;;;6.50;2.17;;;;;;;1.51;100.00;100774.34;5004688;28;20110;-70
2021/11/29 07:10:20;;;;;;;7.68;3.00;;;;;;;1.49;100.00;100784.84;5006755;28;20133;-70
2021/11/29 07:12:48;;;;;;;7.95;2.72;;;;;;;1.38;100.00;100784.81;4999345;28;20120;-70
2021/11/29 07:15:18;;;;;;;7.15;2.92;;;;;;;1.34;100.00;100785.66;5006610;28;20327;-70
2021/11/29 07:17:46;;;;;;;5.45;2.95;;;;;;;1.34;100.00;100790.91;5001316;28;20064;-70
2021/11/29 07:20:15;;;;;;;7.75;2.50;;;;;;;1.38;100.00;100787.44;5006016;28;20501;-70
2021/11/29 07:22:43;;;;;;;6.32;2.88;;;;;;;1.37;100.00;100798.81;5004740;28;20046;-70
2021/11/29 07:25:12;;;;;;;6.85;2.10;;;;;;;1.36;100.00;100802.31;5002068;28;20077;-70
2021/11/29 07:27:40;;;;;;;9.07;3.22;;;;;;;1.34;100.00;100803.19;5004254;28;20045;-69
2021/11/29 07:30:11;;;;;;;10.02;2.75;;;;;;;1.34;100.00;100804.06;5004834;28;20077;-72
2021/11/29 07:32:41;;;;;;;8.55;4.03;;;;;;;1.29;100.00;100803.16;5004764;28;20065;-71
2021/11/29 07:35:10;;;;;;;8.32;3.25;;;;;;;1.26;100.00;100806.66;5004646;28;20061;-74
2021/11/29 07:37:38;;;;;;;7.22;2.80;;;;;;;1.16;100.00;100802.22;4998871;28;20061;-74
2021/11/29 07:40:08;;;;;;;7.38;2.90;;;;;;;1.17;100.00;100808.34;5004583;28;20120;-73
2021/11/29 07:42:36;;;;;;;10.02;3.08;;;;;;;1.08;100.00;100812.69;5004567;28;20050;-73
2021/11/29 07:45:05;;;;;;;7.38;2.60;;;;;;;1.01;100.00;100803.00;5002248;28;20422;-73
2021/11/29 07:47:33;;;;;;;6.38;2.45;;;;;;;0.95;100.00;100813.47;5003323;28;20061;-74
2021/11/29 07:50:03;;;;;;;8.07;3.17;;;;;;;0.98;100.00;100813.50;5003977;28;20069;-73
2021/11/29 07:52:31;;;;;;;7.70;3.50;;;;;;;1.12;100.00;100824.09;5001890;28;20365;-73
2021/11/29 07:54:59;;;;;;;7.40;2.30;;;;;;;1.26;100.00;100816.28;5000917;28;20505;-73
2021/11/29 07:57:27;;;;;;;6.60;1.80;;;;;;;1.65;100.00;100825.25;5003672;28;20192;-74
2021/11/29 07:59:55;;;;;;;8.05;2.30;;;;;;;2.26;100.00;100819.28;5001217;28;20409;-73
2021/11/29 08:02:26;;;;;;;8.25;2.00;;;;;;;2.53;100.00;100812.31;5005581;28;20096;-73
2021/11/29 08:04:54;;;;;;;6.53;1.60;;;;;;;2.92;100.00;100823.72;5004738;28;20050;-73
2021/11/29 08:07:24;;;;;;;5.28;1.50;;;;;;;3.28;100.00;100821.91;5008277;28;20568;-73
2021/11/29 08:09:51;;;;;;;12.30;2.15;;;;;;;3.45;100.00;100825.38;5006404;28;20172;-74
2021/11/29 08:12:19;;;;;;;3.50;1.85;;;;;;;3.65;98.05;100827.06;5007611;28;20131;-74
2021/11/29 08:14:48;;;;;;;10.30;2.17;;;;;;;3.67;98.32;100830.59;5007253;28;20057;-74
2021/11/29 08:17:18;;;;;;;6.50;2.13;;;;;;;3.79;98.61;100840.22;5006212;28;20414;-74
2021/11/29 08:19:46;;;;;;;9.75;1.98;;;;;;;3.81;98.29;100844.59;5006673;28;20143;-74
2021/11/29 08:22:14;;;;;;;8.70;2.30;;;;;;;3.78;98.54;100830.53;5007706;28;20127;-71
2021/11/29 08:24:45;;;;;;;6.22;1.92;;;;;;;3.78;99.17;100835.81;5004343;28;20129;-71
2021/11/29 08:27:14;;;;;;;7.90;2.80;;;;;;;3.82;99.38;100833.16;5005802;28;20089;-71
2021/11/29 08:29:43;;;;;;;10.77;2.67;;;;;;;3.97;98.07;100839.22;5007000;28;20045;-75
2021/11/29 08:32:11;;;;;;;8.93;2.15;;;;;;;4.03;97.62;100845.38;5011824;28;20059;-75
2021/11/29 08:34:42;;;;;;;9.55;2.03;;;;;;;4.16;95.98;100842.69;5002913;28;20049;-75
2021/11/29 08:37:11;;;;;;;6.65;1.98;;;;;;;4.03;97.62;100845.38;5010532;28;20483;-75
2021/11/29 08:39:39;;;;;;;7.68;1.83;;;;;;;3.97;98.91;100852.44;5007602;28;20365;-75
2021/11/29 08:42:09;;;;;;;8.57;2.28;;;;;;;3.82;100.00;100870.09;5009308;28;20129;-76
2021/11/29 08:44:36;;;;;;;6.78;2.13;;;;;;;3.70;100.00;100873.66;5005077;28;20080;-75
2021/11/29 08:47:05;;;;;;;12.52;2.55;;;;;;;3.68;100.00;100874.56;5007910;28;20142;-75
2021/11/29 08:49:33;;;;;;;10.75;2.25;;;;;;;3.50;100.00;100863.16;5001648;28;20085;-76
2021/11/29 08:52:01;;;;;;;7.47;2.63;;;;;;;3.40;100.00;100871.97;5007715;28;20235;-75
2021/11/29 08:54:30;;;;;;;5.65;2.30;;;;;;;3.30;100.00;100879.06;5002142;28;20573;-75
2021/11/29 08:56:58;;;;;;;9.52;2.10;;;;;;;3.23;100.00;100879.91;5008497;28;20060;-75
2021/11/29 08:59:27;;;;;;;7.05;2.42;;;;;;;3.22;100.00;100896.66;5001556;28;20046;-75
2021/11/29 09:01:55;;;;;;;8.35;2.28;;;;;;;3.21;100.00;100891.38;5006664;28;20414;-75
2021/11/29 09:04:23;;;;;;;9.55;2.60;;;;;;;3.21;100.00;100900.16;5004000;28;20046;-75
2021/11/29 09:06:51;;;;;;;6.28;2.25;;;;;;;3.25;100.00;100904.56;5006143;28;20085;-75
2021/11/29 09:09:19;;;;;;;8.15;2.67;;;;;;;3.17;100.00;100895.78;5004333;28;20050;-76
2021/11/29 09:11:47;;;;;;;12.00;3.72;;;;;;;3.34;100.00;100899.25;5005967;28;20120;-75
2021/11/29 09:14:15;;;;;;;9.75;2.50;;;;;;;3.69;100.00;100908.84;5002592;28;20136;-72
2021/11/29 09:16:44;;;;;;;9.10;2.80;;;;;;;3.68;100.00;100908.88;5007216;28;20077;-71
2021/11/29 09:19:13;;;;;;;10.52;2.80;;;;;;;3.68;100.00;100909.75;5000173;28;20517;-73
2021/11/29 09:21:41;;;;;;;10.38;3.10;;;;;;;4.04;100.00;100910.50;5009072;28;20500;-74
2021/11/29 09:24:10;;;;;;;15.45;3.90;;;;;;;4.06;100.00;100906.09;4999415;28;20544;-75
2021/11/29 09:26:37;;;;;;;11.88;2.60;;;;;;;4.28;100.00;100913.94;5007805;28;20140;-75
2021/11/29 09:29:09;;;;;;;10.98;3.08;;;;;;;4.31;100.00;100913.91;5007851;28;20483;-71
2021/11/29 09:31:37;;;;;;;7.53;2.22;;;;;;;4.49;98.64;100921.75;5006234;28;20470;-71
2021/11/29 09:34:07;;;;;;;7.88;2.60;;;;;;;4.58;98.12;100931.38;5004196;28;20136;-71
2021/11/29 09:36:35;;;;;;;14.07;2.47;;;;;;;4.60;97.98;100936.66;5007028;28;20199;-70
2021/11/29 09:39:05;;;;;;;6.88;2.10;;;;;;;4.61;97.92;100933.97;5010594;28;20060;-70
2021/11/29 09:41:34;;;;;;;7.82;2.03;;;;;;;4.69;94.37;100949.81;5003433;28;20053;-70
2021/11/29 09:44:03;;;;;;;8.93;1.70;;;;;;;4.60;96.21;100944.59;5005615;28;20104;-69
2021/11/29 09:46:33;;;;;;;7.53;1.50;;;;;;;4.60;94.79;100945.47;5005632;28;20136;-69
2021/11/29 09:49:03;;;;;;;9.93;1.67;;;;;;;4.52;97.55;100949.91;5008976;28;20065;-70
2021/11/29 09:51:35;;;;;;;7.32;1.80;;;;;;;4.60;98.03;100958.69;5002902;28;20053;-71
2021/11/29 09:54:04;;;;;;;3.85;1.50;;;;;;;4.71;96.66;100969.19;5006224;28;20145;-68
2021/11/29 09:56:32;;;;;;;6.28;1.75;;;;;;;4.57;100.00;100981.59;5004557;28;20068;-69
2021/11/29 09:59:01;;;;;;;9.43;2.20;;;;;;;4.53;98.62;100962.25;5003947;28;20536;-68
2021/11/29 10:01:30;;;;;;;6.43;1.73;;;;;;;4.54;99.45;100957.84;5001814;28;20050;-69
2021/11/29 10:04:03;;;;;;;8.02;2.30;;;;;;;4.47;100.00;100963.13;5007128;28;20088;-73
2021/11/29 10:06:32;;;;;;;7.80;1.92;;;;;;;4.52;100.00;100970.19;5005505;28;20081;-72
2021/11/29 10:09:03;;;;;;;2.88;1.42;;;;;;;4.70;99.50;100988.59;5007212;28;20100;-72
2021/11/29 10:11:31;;;;;;;3.95;1.52;;;;;;;4.61;99.34;100978.06;5002649;28;20103;-73
2021/11/29 10:14:02;;;;;;;5.75;1.85;;;;;;;4.54;100.00;100985.13;5003833;28;20056;-69
2021/11/29 10:16:34;;;;;;;5.30;1.73;;;;;;;4.54;98.65;100971.03;5005050;28;20074;-68
2021/11/29 10:19:05;;;;;;;4.72;1.33;;;;;;;4.51;100.00;100964.00;5005682;28;20041;-69
2021/11/29 10:21:34;;;;;;;6.25;1.20;;;;;;;4.55;100.00;100962.25;5002094;28;20119;-69
2021/11/29 10:24:13;;;;;;;5.20;1.63;;;;;;;4.62;98.89;100964.84;5008863;28;20080;-69
2021/11/29 10:26:42;;;;;;;12.43;2.90;;;;;;;4.62;100.00;100963.97;5002659;28;20068;-69
2021/11/29 10:29:12;;;;;;;7.53;1.90;;;;;;;4.66;99.95;100965.69;5007480;28;20049;-69
2021/11/29 10:31:43;;;;;;;10.25;1.98;;;;;;;4.72;99.31;100965.66;5002451;28;20058;-69
2021/11/29 10:34:15;;;;;;;4.75;2.08;;;;;;;4.86;97.94;100973.50;5009812;28;20111;-69
2021/11/29 10:36:46;;;;;;;6.88;1.60;;;;;;;4.93;97.11;100985.78;5001756;28;20065;-69
2021/11/29 10:39:18;;;;;;;6.53;1.33;;;;;;;4.82;98.05;100979.72;5036029;28;20097;-68
2021/11/29 10:41:48;;;;;;;4.47;1.50;;;;;;;4.83;98.76;100968.22;5006329;28;20288;-68
2021/11/29 10:44:19;;;;;;;9.57;1.77;;;;;;;4.90;99.88;100990.22;5003233;28;20550;-68
2021/11/29 10:46:49;;;;;;;5.45;1.90;;;;;;;4.92;100.00;100981.41;5004906;28;20084;-69
2021/11/29 10:49:19;;;;;;;5.00;1.70;;;;;;;4.92;100.00;100986.69;5001345;28;20360;-69
2021/11/29 10:51:48;;;;;;;6.47;1.80;;;;;;;4.95;100.00;100985.78;5007221;28;20112;-71
2021/11/29 10:54:20;;;;;;;9.05;2.13;;;;;;;5.00;100.00;100984.00;4999770;28;20703;-69
2021/11/29 10:56:48;;;;;;;7.07;2.22;;;;;;;5.02;100.00;100993.69;5004399;28;20164;-71
2021/11/29 10:59:18;;;;;;;5.07;1.90;;;;;;;5.10;98.88;100983.03;4999686;28;20211;-71
2021/11/29 11:01:48;;;;;;;10.88;2.00;;;;;;;5.13;98.34;100977.72;5004994;28;20149;-70
2021/11/29 11:04:18;;;;;;;5.30;1.50;;;;;;;5.15;98.20;100986.53;5000350;28;20049;-69
2021/11/29 11:06:49;;;;;;;6.53;1.67;;;;;;;5.20;96.73;100992.66;5009391;28;20095;-70
2021/11/29 11:09:23;;;;;;;9.82;2.15;;;;;;;5.28;97.62;100984.69;5006255;28;20133;-69
2021/11/29 11:11:51;;;;;;;;;;;;;;;5.37;98.45;100981.94;5005491;28;20045;-67
2021/11/29 11:14:21;;;;;;;6.63;1.50;;;;;;;5.40;96.03;100984.56;5007012;28;20048;-68
2021/11/29 11:16:57;;;;;;;6.10;1.58;;;;;;;5.43;96.08;101008.38;5004467;28;20050;-68
2021/11/29 11:19:29;;;;;;;7.07;2.85;;;;;;;5.41;96.77;100993.38;5004688;28;20045;-68
2021/11/29 11:21:59;;;;;;;6.40;1.60;;;;;;;5.40;96.73;101003.09;5002715;28;20536;-71
2021/11/29 11:24:32;;;;;;;8.98;2.10;;;;;;;5.35;97.98;101002.25;5008782;28;20041;-70
2021/11/29 11:27:02;;;;;;;5.40;1.33;;;;;;;5.36;99.64;101019.91;5003659;28;20107;-68
2021/11/29 11:29:47;;;;;;;4.93;2.20;;;;;;;5.21;100.00;101014.69;5004512;28;20318;-69
2021/11/29 11:32:31;;;;;;;3.42;1.50;;;;;;;5.06;100.00;101013.06;5002456;28;20049;-69
2021/11/29 11:35:04;;;;;;;3.72;1.75;;;;;;;5.00;100.00;101021.88;5005674;28;20053;-69